createdAt,value
2018-06-21T00:01:09.878Z,44.40
2018-06-21T00:03:39.065Z,44.40
2018-06-21T00:06:07.760Z,44.50
2018-06-21T00:08:36.739Z,44.40
2018-06-21T00:11:05.817Z,44.40
2018-06-21T00:13:34.567Z,44.40
2018-06-21T00:16:05.584Z,44.40
2018-06-21T00:18:35.031Z,44.30
2018-06-21T00:21:04.464Z,44.40
2018-06-21T00:23:33.469Z,44.30
2018-06-21T00:26:02.072Z,44.30
2018-06-21T00:28:30.915Z,44.30
2018-06-21T00:30:59.807Z,44.30
2018-06-21T00:33:28.796Z,44.40
2018-06-21T00:35:58.189Z,44.30
2018-06-21T00:38:26.979Z,44.30
2018-06-21T00:40:55.785Z,44.30
2018-06-21T00:43:24.489Z,44.30
2018-06-21T00:45:53.236Z,44.30
2018-06-21T00:48:22.130Z,44.30
2018-06-21T00:50:51.046Z,44.30
2018-06-21T00:53:20.297Z,44.30
2018-06-21T00:56:00.655Z,44.30
2018-06-21T00:58:33.244Z,44.30
2018-06-21T01:01:02.557Z,44.30
2018-06-21T01:03:31.215Z,44.30
2018-06-21T01:06:00.180Z,44.30
2018-06-21T01:08:28.926Z,44.30
2018-06-21T01:10:58.044Z,44.30
2018-06-21T01:13:26.685Z,44.30
2018-06-21T01:15:55.936Z,44.30
2018-06-21T01:18:24.781Z,44.30
2018-06-21T01:20:54.256Z,44.30
2018-06-21T01:23:27.406Z,44.30
2018-06-21T01:25:56.325Z,44.30
2018-06-21T01:28:25.656Z,44.20
2018-06-21T01:30:54.919Z,43.80
2018-06-21T01:33:24.112Z,44.30
2018-06-21T01:35:53.072Z,44.20
2018-06-21T01:38:22.090Z,44.20
2018-06-21T01:40:51.292Z,44.20
2018-06-21T01:43:19.863Z,44.20
2018-06-21T01:45:48.924Z,44.20
2018-06-21T01:48:18.266Z,44.20
2018-06-21T01:50:47.364Z,44.20
2018-06-21T01:53:16.461Z,44.20
2018-06-21T01:55:45.554Z,44.20
2018-06-21T01:58:14.303Z,44.20
2018-06-21T02:00:43.154Z,44.20
2018-06-21T02:03:12.980Z,44.20
2018-06-21T02:05:41.755Z,44.20
2018-06-21T02:08:11.190Z,44.20
2018-06-21T02:10:40.410Z,44.20
2018-06-21T02:13:08.999Z,44.10
2018-06-21T02:15:38.118Z,44.10
2018-06-21T02:18:07.654Z,44.10
2018-06-21T02:20:36.899Z,44.20
2018-06-21T02:23:05.310Z,44.10
2018-06-21T02:25:35.356Z,44.10
2018-06-21T02:28:04.337Z,44.10
2018-06-21T02:30:32.750Z,44.80
2018-06-21T02:33:01.417Z,44.10
2018-06-21T02:35:30.121Z,44.10
2018-06-21T02:37:59.427Z,44.10
2018-06-21T02:40:28.176Z,44.10
2018-06-21T02:43:01.593Z,44.10
2018-06-21T02:45:30.681Z,44.10
2018-06-21T02:47:59.593Z,44.00
2018-06-21T02:50:28.011Z,44.50
2018-06-21T02:52:56.511Z,44.00
2018-06-21T02:55:25.646Z,44.00
2018-06-21T03:00:23.453Z,44.00
2018-06-21T03:02:52.330Z,44.00
2018-06-21T03:05:21.030Z,44.00
2018-06-21T03:07:50.194Z,44.10
2018-06-21T03:10:19.463Z,44.00
2018-06-21T03:17:41.015Z,44.00
2018-06-21T03:20:10.311Z,43.90
2018-06-21T03:22:41.075Z,43.90
2018-06-21T03:25:10.334Z,44.00
2018-06-21T03:27:39.244Z,44.00
2018-06-21T03:30:07.715Z,43.90
2018-06-21T03:32:36.521Z,44.00
2018-06-21T03:35:05.409Z,43.80
2018-06-21T03:37:34.320Z,43.80
2018-06-21T03:40:03.194Z,43.90
2018-06-21T03:42:32.660Z,43.80
2018-06-21T03:45:01.282Z,43.80
2018-06-21T03:47:30.232Z,43.80
2018-06-21T03:49:59.145Z,43.80
2018-06-21T03:52:28.381Z,43.80
2018-06-21T03:54:57.574Z,43.70
2018-06-21T03:57:26.729Z,43.70
2018-06-21T03:59:55.867Z,43.70
2018-06-21T04:02:24.629Z,43.70
2018-06-21T04:04:53.020Z,43.70
2018-06-21T04:07:22.898Z,43.70
2018-06-21T04:09:51.364Z,43.60
2018-06-21T04:12:20.521Z,43.60
2018-06-21T04:14:49.718Z,43.60
2018-06-21T04:17:18.854Z,44.20
2018-06-21T04:22:16.358Z,43.60
2018-06-21T04:24:45.170Z,43.60
2018-06-21T04:27:14.275Z,43.50
2018-06-21T04:29:45.021Z,43.50
2018-06-21T04:32:13.997Z,43.50
2018-06-21T04:34:43.422Z,43.50
2018-06-21T04:39:41.022Z,43.50
2018-06-21T04:44:40.408Z,43.40
2018-06-21T04:47:09.046Z,43.40
2018-06-21T04:49:38.116Z,43.30
2018-06-21T04:52:07.590Z,43.30
2018-06-21T04:54:36.150Z,43.20
2018-06-21T04:57:05.675Z,43.20
2018-06-21T04:59:35.290Z,43.20
2018-06-21T05:02:04.543Z,43.20
2018-06-21T05:04:33.466Z,43.10
2018-06-21T05:07:04.745Z,43.10
2018-06-21T05:09:33.483Z,43.10
2018-06-21T05:12:02.160Z,43.10
2018-06-21T05:14:31.316Z,43.00
2018-06-21T05:19:28.877Z,43.10
2018-06-21T05:21:57.823Z,42.90
2018-06-21T05:24:26.951Z,42.90
2018-06-21T05:26:56.438Z,42.80
2018-06-21T05:29:25.619Z,42.80
2018-06-21T05:31:55.052Z,42.90
2018-06-21T05:34:24.300Z,42.80
2018-06-21T05:36:53.218Z,42.80
2018-06-21T05:39:22.531Z,42.70
2018-06-21T05:41:51.096Z,42.70
2018-06-21T05:44:20.880Z,42.60
2018-06-21T05:49:19.651Z,42.70
2018-06-21T05:51:48.146Z,42.60
2018-06-21T05:54:16.709Z,41.90
2018-06-21T05:56:45.933Z,41.10
2018-06-21T05:59:18.332Z,40.90
2018-06-21T06:01:46.842Z,40.50
2018-06-21T06:04:15.967Z,40.00
2018-06-21T06:06:45.008Z,39.30
2018-06-21T06:09:13.627Z,38.90
2018-06-21T06:11:42.431Z,39.10
2018-06-21T06:14:11.717Z,39.10
2018-06-21T06:16:40.536Z,38.80
2018-06-21T06:19:09.649Z,38.50
2018-06-21T06:21:39.033Z,38.30
2018-06-21T06:24:08.272Z,38.10
2018-06-21T06:26:37.175Z,37.90
2018-06-21T06:29:06.724Z,38.00
2018-06-21T06:31:35.629Z,37.80
2018-06-21T06:34:04.660Z,37.90
2018-06-21T06:36:33.829Z,38.10
2018-06-21T06:39:20.735Z,38.20
2018-06-21T06:41:51.324Z,37.90
2018-06-21T06:44:20.611Z,38.00
2018-06-21T06:46:49.530Z,37.60
2018-06-21T06:49:18.968Z,37.50
2018-06-21T06:51:48.480Z,37.40
2018-06-21T06:56:46.338Z,37.30
2018-06-21T06:59:15.171Z,37.30
2018-06-21T07:01:44.514Z,37.40
2018-06-21T07:04:13.975Z,37.40
2018-06-21T07:06:43.424Z,37.30
2018-06-21T07:09:12.700Z,37.40
2018-06-21T07:11:41.560Z,37.40
2018-06-21T07:14:10.022Z,37.40
2018-06-21T07:16:39.438Z,37.50
2018-06-21T07:19:08.736Z,37.50
2018-06-21T07:21:39.412Z,37.50
2018-06-21T07:24:09.575Z,37.90
2018-06-21T07:26:39.032Z,37.40
2018-06-21T07:29:09.155Z,37.50
2018-06-21T07:31:38.620Z,37.50
2018-06-21T07:34:08.046Z,37.50
2018-06-21T07:36:37.168Z,37.90
2018-06-21T07:39:09.716Z,37.50
2018-06-21T07:41:38.759Z,37.60
2018-06-21T07:44:07.585Z,37.50
2018-06-21T07:46:36.241Z,37.40
2018-06-21T07:49:06.701Z,37.40
2018-06-21T07:51:36.173Z,37.40
2018-06-21T07:54:05.031Z,37.40
2018-06-21T07:56:33.942Z,37.40
2018-06-21T07:59:02.848Z,37.40
2018-06-21T08:01:32.292Z,37.40
2018-06-21T08:04:01.130Z,37.10
2018-06-21T08:06:30.538Z,37.00
2018-06-21T08:08:59.553Z,36.90
2018-06-21T08:11:28.437Z,37.00
2018-06-21T08:13:57.576Z,37.00
2018-06-21T08:16:26.781Z,36.80
2018-06-21T08:18:56.369Z,36.80
2018-06-21T08:21:25.538Z,36.80
2018-06-21T08:23:55.032Z,36.50
2018-06-21T08:26:24.434Z,36.30
2018-06-21T08:28:53.269Z,36.40
2018-06-21T08:31:22.966Z,36.40
2018-06-21T08:36:20.574Z,36.00
2018-06-21T08:38:49.091Z,36.10
2018-06-21T08:41:17.681Z,35.90
2018-06-21T08:43:46.757Z,35.70
2018-06-21T08:46:15.513Z,35.60
2018-06-21T08:48:45.226Z,35.50
2018-06-21T08:51:14.537Z,35.50
2018-06-21T08:53:44.999Z,35.50
2018-06-21T08:56:14.399Z,35.20
2018-06-21T08:58:43.429Z,35.10
2018-06-21T09:01:12.263Z,35.10
2018-06-21T09:03:40.929Z,35.00
2018-06-21T09:06:10.037Z,35.10
2018-06-21T09:08:38.745Z,35.50
2018-06-21T09:11:07.839Z,34.80
2018-06-21T09:13:37.891Z,34.80
2018-06-21T09:16:11.540Z,34.80
2018-06-21T09:18:41.021Z,34.80
2018-06-21T09:21:10.418Z,34.80
2018-06-21T09:23:39.186Z,34.80
2018-06-21T09:26:08.737Z,34.80
2018-06-21T09:28:38.180Z,34.60
2018-06-21T09:31:07.481Z,34.60
2018-06-21T09:33:36.338Z,34.50
2018-06-21T09:36:05.581Z,34.40
2018-06-21T09:38:39.933Z,34.30
2018-06-21T09:41:13.923Z,34.00
2018-06-21T09:44:03.654Z,33.80
2018-06-21T09:46:33.873Z,33.70
2018-06-21T09:48:53.737Z,33.70
2018-06-21T09:51:23.083Z,33.40
2018-06-21T09:53:53.679Z,33.40
2018-06-21T09:56:22.757Z,33.50
2018-06-21T09:58:51.813Z,33.10
2018-06-21T10:01:20.378Z,32.80
2018-06-21T10:03:49.366Z,32.80
2018-06-21T10:06:18.439Z,32.60
2018-06-21T10:08:47.827Z,32.40
2018-06-21T10:11:16.799Z,32.40
2018-06-21T10:13:46.377Z,32.40
2018-06-21T10:16:15.178Z,32.30
2018-06-21T10:18:44.268Z,32.30
2018-06-21T10:21:13.507Z,32.30
2018-06-21T10:23:43.480Z,32.10
2018-06-21T10:26:12.297Z,32.20
2018-06-21T10:28:41.357Z,32.20
2018-06-21T10:31:10.807Z,32.40
2018-06-21T10:33:39.662Z,32.30
2018-06-21T10:36:08.718Z,31.90
2018-06-21T10:38:37.388Z,31.80
2018-06-21T10:41:06.800Z,31.60
2018-06-21T10:43:36.172Z,31.50
2018-06-21T10:46:04.994Z,31.70
2018-06-21T10:48:33.931Z,32.10
2018-06-21T10:51:02.789Z,31.50
2018-06-21T10:53:32.328Z,31.40
2018-06-21T10:56:02.702Z,31.10
2018-06-21T10:58:32.105Z,31.00
2018-06-21T11:01:01.743Z,30.90
2018-06-21T11:03:31.196Z,30.90
2018-06-21T11:06:00.739Z,30.80
2018-06-21T11:08:30.074Z,30.80
2018-06-21T11:10:59.217Z,30.60
2018-06-21T11:13:28.576Z,30.70
2018-06-21T11:15:58.226Z,30.70
2018-06-21T11:18:27.776Z,30.70
2018-06-21T11:20:56.980Z,30.60
2018-06-21T11:23:25.708Z,30.50
2018-06-21T11:25:54.806Z,30.30
2018-06-21T11:28:24.548Z,30.20
2018-06-21T11:30:53.649Z,30.10
2018-06-21T11:33:22.529Z,30.00
2018-06-21T11:35:51.639Z,30.00
2018-06-21T11:38:20.686Z,30.00
2018-06-21T11:40:49.377Z,29.80
2018-06-21T11:43:18.434Z,29.80
2018-06-21T11:45:47.703Z,29.80
2018-06-21T11:48:17.312Z,29.90
2018-06-21T11:50:45.835Z,29.90
2018-06-21T11:53:14.680Z,29.80
2018-06-21T11:55:43.686Z,29.70
2018-06-21T11:58:13.078Z,29.60
2018-06-21T12:00:44.319Z,29.60
2018-06-21T12:03:13.690Z,29.60
2018-06-21T12:05:42.356Z,29.40
2018-06-21T12:08:11.394Z,29.30
2018-06-21T12:10:40.326Z,29.20
2018-06-21T12:13:10.241Z,29.20
2018-06-21T12:15:39.256Z,29.30
2018-06-21T12:18:08.196Z,29.30
2018-06-21T12:20:36.959Z,29.20
2018-06-21T12:23:06.596Z,29.30
2018-06-21T12:25:36.014Z,29.40
2018-06-21T12:28:05.033Z,29.40
2018-06-21T12:30:34.096Z,29.30
2018-06-21T12:33:03.433Z,29.40
2018-06-21T12:35:32.924Z,29.40
2018-06-21T12:38:01.496Z,29.50
2018-06-21T12:40:30.170Z,29.60
2018-06-21T12:42:59.638Z,29.40
2018-06-21T12:45:28.913Z,29.60
2018-06-21T12:47:58.234Z,29.20
2018-06-21T12:50:28.233Z,29.10
2018-06-21T12:52:57.466Z,29.00
2018-06-21T12:55:26.720Z,29.00
2018-06-21T12:57:55.435Z,29.00
2018-06-21T13:00:27.412Z,29.40
2018-06-21T13:02:56.478Z,29.40
2018-06-21T13:05:25.629Z,29.10
2018-06-21T13:07:55.771Z,29.10
2018-06-21T13:10:36.050Z,29.20
2018-06-21T13:13:12.949Z,29.10
2018-06-21T13:18:11.531Z,28.90
2018-06-21T13:20:40.458Z,29.10
2018-06-21T13:23:10.180Z,29.10
2018-06-21T13:25:38.836Z,29.10
2018-06-21T13:28:07.621Z,29.00
2018-06-21T13:30:36.703Z,28.90
2018-06-21T13:33:06.160Z,28.70
2018-06-21T13:35:35.193Z,28.80
2018-06-21T13:38:04.611Z,28.80
2018-06-21T13:40:33.292Z,28.80
2018-06-21T13:43:02.239Z,28.70
2018-06-21T13:45:31.520Z,28.60
2018-06-21T13:48:00.551Z,28.60
2018-06-21T13:50:29.249Z,28.70
2018-06-21T13:52:57.842Z,28.70
2018-06-21T13:55:27.571Z,28.80
2018-06-21T13:57:55.993Z,28.50
2018-06-21T14:00:26.283Z,28.40
2018-06-21T14:02:55.041Z,28.30
2018-06-21T14:05:24.363Z,28.30
2018-06-21T14:07:53.466Z,28.30
2018-06-21T14:10:22.608Z,28.20
2018-06-21T14:12:51.989Z,28.10
2018-06-21T14:15:20.997Z,28.10
2018-06-21T14:17:49.734Z,28.10
2018-06-21T14:20:19.235Z,28.00
2018-06-21T14:22:48.039Z,28.00
2018-06-21T14:25:17.575Z,27.90
2018-06-21T14:27:46.046Z,27.90
2018-06-21T14:30:15.080Z,27.60
2018-06-21T14:32:44.186Z,27.40
2018-06-21T14:35:13.086Z,27.20
2018-06-21T14:37:41.618Z,27.10
2018-06-21T14:40:11.261Z,27.10
2018-06-21T14:42:40.723Z,27.10
2018-06-21T14:45:09.558Z,27.20
2018-06-21T14:47:38.287Z,27.20
2018-06-21T14:50:07.462Z,27.30
2018-06-21T14:52:36.703Z,27.60
2018-06-21T14:55:05.983Z,27.60
2018-06-21T14:58:59.347Z,27.60
2018-06-21T15:01:29.543Z,27.60
2018-06-21T15:03:58.580Z,27.70
